DLH481 KDEN-EDDM
Flight info
| Callsign | DLH481 |
|---|---|
| Flight time | N/A |
| Altitude | 37000 |
| Route | CHUWY1 CHUWY DCT KP81A DCT KP90C DCT KP09E DCT KP15G DCT 4930N09000W/N0493F390 DCT VIRSO DCT HELMO DCT FASSA DCT LOPVI DCT PEPKI/M084F390 DCT PIDSO DCT 62N050W 6230N04000W/M084F410 62N030W 6030N02000W DCT ERAKA/N0480F410 DCT ETSOM DCT GODOS DCT SPY DCT MISGO DCT DOJOH DCT DODEN DCT TABUM DCT BOMBI T104 HAREM/N0461F350 T104 ELMOX/N0426F270 T104 ROKIL ROKIL1B |
| Aircraft | A359/H-SADE2E3GHIJ1J2J3J4J5M1P2RWXYZ/LB1D1 |
Departure
| Time | N/A |
|---|---|
| Airport | Denver International Airport (KDEN) |
Arrival
| Time | 2026-05-04 09:10 |
|---|---|
| Airport | Munich Airport (EDDM) |
| Time | Latitude | Longitude | Altitude | Speed | Heading |
|---|---|---|---|---|---|
| 2026-05-04 08:52 | 49.01870 | 10.43781 | 34730 ft | 456 kts | 138° |
| 2026-05-04 08:52 | 48.99671 | 10.47287 | 33935 ft | 461 kts | 138° |
| 2026-05-04 08:52 | 48.97459 | 10.50821 | 33261 ft | 460 kts | 138° |
| 2026-05-04 08:52 | 48.95259 | 10.54330 | 32729 ft | 456 kts | 138° |
| 2026-05-04 08:53 | 48.93079 | 10.57810 | 32205 ft | 452 kts | 138° |
| 2026-05-04 08:54 | 48.78247 | 10.81299 | 28610 ft | 427 kts | 137° |
| 2026-05-04 08:55 | 48.76221 | 10.84477 | 28142 ft | 423 kts | 137° |
| 2026-05-04 08:55 | 48.74184 | 10.87666 | 27663 ft | 419 kts | 137° |
| 2026-05-04 08:55 | 48.72165 | 10.90822 | 27172 ft | 415 kts | 137° |
| 2026-05-04 08:55 | 48.70263 | 10.94067 | 26961 ft | 411 kts | 131° |
| 2026-05-04 08:57 | 48.64229 | 11.23416 | 22336 ft | 425 kts | 104° |
| 2026-05-04 09:01 | 48.55085 | 11.81288 | 13448 ft | 385 kts | 106° |
| 2026-05-04 09:01 | 48.54454 | 11.85196 | 12819 ft | 381 kts | 106° |
| 2026-05-04 09:01 | 48.53828 | 11.89059 | 12200 ft | 374 kts | 106° |
| 2026-05-04 09:01 | 48.53231 | 11.92755 | 11659 ft | 351 kts | 106° |
| 2026-05-04 09:02 | 48.52673 | 11.96217 | 11214 ft | 330 kts | 106° |
| 2026-05-04 09:02 | 48.52143 | 11.99489 | 10733 ft | 313 kts | 106° |
| 2026-05-04 09:02 | 48.51633 | 12.02609 | 10244 ft | 300 kts | 106° |
| 2026-05-04 09:02 | 48.51134 | 12.05634 | 9766 ft | 297 kts | 107° |
| 2026-05-04 09:03 | 48.50632 | 12.08655 | 9228 ft | 297 kts | 106° |
| 2026-05-04 09:03 | 48.50129 | 12.11680 | 8735 ft | 297 kts | 106° |
| 2026-05-04 09:03 | 48.49630 | 12.14688 | 8252 ft | 292 kts | 106° |
| 2026-05-04 09:03 | 48.49078 | 12.17553 | 7788 ft | 281 kts | 115° |
| 2026-05-04 09:04 | 48.47918 | 12.19879 | 7355 ft | 278 kts | 142° |
| 2026-05-04 09:04 | 48.46222 | 12.21168 | 6983 ft | 274 kts | 166° |
| 2026-05-04 09:04 | 48.44346 | 12.21575 | 6590 ft | 272 kts | 181° |
| 2026-05-04 09:04 | 48.42538 | 12.20869 | 6203 ft | 270 kts | 208° |
| 2026-05-04 09:05 | 48.41130 | 12.19028 | 5934 ft | 270 kts | 230° |
| 2026-05-04 09:05 | 48.40011 | 12.16755 | 5699 ft | 271 kts | 233° |
| 2026-05-04 09:05 | 48.39075 | 12.14359 | 5449 ft | 262 kts | 251° |
| 2026-05-04 09:05 | 48.38836 | 12.11682 | 5259 ft | 257 kts | 268° |
| 2026-05-04 09:06 | 48.38765 | 12.09015 | 4980 ft | 253 kts | 265° |
| 2026-05-04 09:07 | 48.37507 | 11.92930 | 2903 ft | 184 kts | 263° |
| 2026-05-04 09:08 | 48.37366 | 11.91060 | 2658 ft | 176 kts | 264° |
| 2026-05-04 09:08 | 48.37232 | 11.89274 | 2433 ft | 168 kts | 265° |
| 2026-05-04 09:08 | 48.37102 | 11.87561 | 2211 ft | 162 kts | 264° |
| 2026-05-04 09:08 | 48.36981 | 11.85921 | 2003 ft | 153 kts | 264° |
| 2026-05-04 09:09 | 48.36861 | 11.84370 | 1806 ft | 146 kts | 264° |
| 2026-05-04 09:09 | 48.36746 | 11.82875 | 1625 ft | 142 kts | 265° |
| 2026-05-04 09:09 | 48.36632 | 11.81399 | 1499 ft | 140 kts | 265° |
| 2026-05-04 09:09 | 48.36536 | 11.80126 | 1479 ft | 95 kts | 263° |
| 2026-05-04 09:10 | 48.36483 | 11.79440 | 1485 ft | 46 kts | 263° |
| 2026-05-04 09:10 | 48.36451 | 11.79105 | 1479 ft | 25 kts | 251° |
| 2026-05-04 09:10 | 48.36377 | 11.78862 | 1481 ft | 26 kts | 236° |
| 2026-05-04 09:10 | 48.36272 | 11.78649 | 1478 ft | 20 kts | 234° |
| 2026-05-04 09:11 | 48.36202 | 11.78513 | 1479 ft | 15 kts | 225° |
| 2026-05-04 09:11 | 48.36104 | 11.78483 | 1478 ft | 16 kts | 176° |
| 2026-05-04 09:11 | 48.36035 | 11.78545 | 1478 ft | 9 kts | 98° |
| 2026-05-04 09:11 | 48.36042 | 11.78656 | 1492 ft | 12 kts | 83° |
| 2026-05-04 09:12 | 48.36053 | 11.78798 | 1482 ft | 15 kts | 83° |
| 2026-05-04 09:12 | 48.36065 | 11.78962 | 1479 ft | 16 kts | 83° |
| 2026-05-04 09:14 | 48.35728 | 11.79405 | 1492 ft | 13 kts | 174° |
| 2026-05-04 09:14 | 48.35669 | 11.79408 | 1484 ft | 7 kts | 198° |
| 2026-05-04 09:14 | 48.35650 | 11.79348 | 1477 ft | 7 kts | 260° |
| 2026-05-04 09:14 | 48.35645 | 11.79290 | 1482 ft | 3 kts | 263° |
| 2026-05-04 09:15 | 48.35644 | 11.79279 | 1479 ft | 0 kts | 263° |